createdAt,value
2022-10-18T00:00:32.642Z,22.05
2022-10-18T00:03:37.142Z,22.52
2022-10-18T00:06:43.360Z,20.20
2022-10-18T00:09:48.398Z,15.95
2022-10-18T00:12:51.662Z,20.08
2022-10-18T00:15:58.414Z,18.42
2022-10-18T00:19:01.455Z,23.90
2022-10-18T00:22:04.642Z,18.70
2022-10-18T00:25:08.479Z,17.85
2022-10-18T00:28:11.718Z,29.23
2022-10-18T00:31:23.628Z,18.25
2022-10-18T00:34:26.904Z,22.83
2022-10-18T00:37:29.851Z,17.58
2022-10-18T00:40:33.832Z,18.83
2022-10-18T00:43:54.862Z,23.70
2022-10-18T00:47:10.416Z,23.20
2022-10-18T00:50:13.785Z,30.37
2022-10-18T00:53:21.522Z,29.80
2022-10-18T00:56:24.352Z,21.77
2022-10-18T00:59:28.426Z,23.17
2022-10-18T01:02:33.701Z,16.42
2022-10-18T01:05:42.901Z,17.20
2022-10-18T01:09:02.582Z,18.27
2022-10-18T01:12:21.756Z,17.10
2022-10-18T01:15:29.367Z,19.13
2022-10-18T01:18:48.012Z,21.70
2022-10-18T01:21:57.887Z,15.63
2022-10-18T01:25:14.694Z,18.25
2022-10-18T01:28:53.659Z,20.08
2022-10-18T01:32:02.750Z,28.15
2022-10-18T01:35:18.381Z,20.33
2022-10-18T01:38:24.191Z,21.27
2022-10-18T01:41:28.858Z,15.80
2022-10-18T01:44:34.286Z,15.10
2022-10-18T01:47:37.756Z,19.10
2022-10-18T01:50:41.139Z,17.85
2022-10-18T01:53:43.989Z,20.45
2022-10-18T01:57:04.856Z,15.48
2022-10-18T02:00:24.090Z,19.33
2022-10-18T02:03:29.595Z,20.08
2022-10-18T02:06:42.632Z,18.35
2022-10-18T02:10:00.796Z,20.27
2022-10-18T02:13:03.738Z,17.15
2022-10-18T02:16:20.263Z,23.02
2022-10-18T02:19:31.906Z,20.48
2022-10-18T02:22:37.478Z,22.05
2022-10-18T02:25:41.077Z,16.15
2022-10-18T02:28:45.885Z,16.98
2022-10-18T02:32:03.874Z,14.57
2022-10-18T02:35:25.700Z,18.27
2022-10-18T02:38:33.196Z,19.83
2022-10-18T02:41:36.625Z,20.48
2022-10-18T02:44:39.586Z,16.83
2022-10-18T02:47:43.637Z,14.45
2022-10-18T02:50:46.539Z,18.85
2022-10-18T02:53:49.969Z,15.23
2022-10-18T02:56:53.583Z,18.08
2022-10-18T02:59:58.310Z,20.20
2022-10-18T03:03:01.186Z,14.15
2022-10-18T03:06:04.949Z,17.70
2022-10-18T03:09:08.886Z,19.30
2022-10-18T03:12:12.244Z,17.02
2022-10-18T03:15:15.202Z,13.60
2022-10-18T03:18:18.801Z,17.40
2022-10-18T03:21:21.790Z,17.62
2022-10-18T03:24:25.621Z,15.43
2022-10-18T03:27:28.972Z,16.27
2022-10-18T03:30:32.449Z,22.70
2022-10-18T03:33:35.093Z,17.67
2022-10-18T03:36:39.050Z,15.43
2022-10-18T03:39:41.566Z,18.37
2022-10-18T03:42:46.788Z,14.27
2022-10-18T03:45:49.807Z,15.88
2022-10-18T03:48:52.918Z,19.65
2022-10-18T03:51:55.701Z,14.63
2022-10-18T03:54:58.821Z,20.33
2022-10-18T03:58:01.951Z,16.12
2022-10-18T04:01:06.102Z,18.05
2022-10-18T04:04:09.031Z,19.62
2022-10-18T04:07:11.182Z,17.17
2022-10-18T04:10:13.796Z,20.60
2022-10-18T04:13:15.897Z,19.35
2022-10-18T04:16:18.599Z,18.35
2022-10-18T04:19:20.793Z,20.80
2022-10-18T04:22:23.265Z,18.42
2022-10-18T04:25:25.398Z,16.45
2022-10-18T04:28:27.884Z,18.60
2022-10-18T04:31:30.094Z,19.42
2022-10-18T04:34:32.734Z,19.35
2022-10-18T04:37:35.866Z,15.00
2022-10-18T04:40:38.375Z,18.80
2022-10-18T04:43:40.719Z,15.73
2022-10-18T04:46:43.410Z,16.73
2022-10-18T04:49:45.703Z,18.08
2022-10-18T04:55:50.862Z,24.90
2022-10-18T04:58:53.753Z,21.70
2022-10-18T05:01:55.946Z,24.75
2022-10-18T05:04:58.594Z,22.52
2022-10-18T05:08:00.787Z,18.60
2022-10-18T05:11:04.472Z,21.40
2022-10-18T05:14:06.872Z,16.02
2022-10-18T05:17:09.401Z,23.00
2022-10-18T05:20:11.832Z,20.52
2022-10-18T05:23:14.300Z,18.30
2022-10-18T05:26:16.481Z,22.67
2022-10-18T05:29:18.925Z,16.15
2022-10-18T05:32:21.459Z,17.33
2022-10-18T05:35:24.966Z,19.40
2022-10-18T05:38:27.187Z,17.15
2022-10-18T05:41:29.715Z,17.95
2022-10-18T05:44:32.303Z,19.15
2022-10-18T05:50:40.251Z,21.10
2022-10-18T05:53:43.585Z,26.23
2022-10-18T05:56:45.807Z,27.75
2022-10-18T05:59:48.349Z,20.92
2022-10-18T06:02:51.214Z,28.58
2022-10-18T06:05:58.706Z,28.25
2022-10-18T06:09:03.251Z,22.95
2022-10-18T06:12:06.037Z,25.92
2022-10-18T06:15:08.435Z,26.17
2022-10-18T06:18:10.867Z,20.45
2022-10-18T06:21:14.758Z,23.83
2022-10-18T06:24:18.505Z,26.90
2022-10-18T06:27:20.936Z,24.83
2022-10-18T06:30:23.488Z,22.15
2022-10-18T06:33:27.003Z,24.92
2022-10-18T06:36:29.467Z,23.77
2022-10-18T06:39:32.427Z,22.00
2022-10-18T06:42:36.137Z,23.27
2022-10-18T06:45:40.736Z,29.15
2022-10-18T06:48:43.419Z,31.77
2022-10-18T06:51:46.180Z,34.28
2022-10-18T06:54:48.650Z,36.60
2022-10-18T06:57:50.751Z,43.90
2022-10-18T07:00:53.187Z,55.03
2022-10-18T07:03:55.799Z,30.60
2022-10-18T07:06:58.293Z,48.33
2022-10-18T07:10:00.435Z,39.22
2022-10-18T07:13:27.495Z,31.55
2022-10-18T07:16:26.251Z,30.75
2022-10-18T07:19:28.873Z,21.35
2022-10-18T07:22:31.411Z,28.45
2022-10-18T07:25:34.774Z,31.45
2022-10-18T07:28:36.976Z,29.33
2022-10-18T07:31:40.855Z,32.95
2022-10-18T07:34:44.275Z,27.42
2022-10-18T07:37:49.105Z,28.92
2022-10-18T07:41:05.230Z,27.35
2022-10-18T07:44:08.009Z,25.95
2022-10-18T07:47:10.107Z,27.87
2022-10-18T07:50:12.465Z,24.87
2022-10-18T07:53:14.913Z,26.70
2022-10-18T07:56:22.082Z,24.90
2022-10-18T07:59:24.233Z,31.58
2022-10-18T08:02:26.811Z,22.85
2022-10-18T08:05:29.973Z,30.00
2022-10-18T08:08:32.184Z,31.02
2022-10-18T08:11:34.546Z,31.35
2022-10-18T08:14:38.690Z,27.75
2022-10-18T08:17:43.500Z,31.50
2022-10-18T08:20:46.378Z,29.12
2022-10-18T08:23:49.614Z,34.78
2022-10-18T08:26:52.026Z,29.30
2022-10-18T08:29:54.976Z,40.17
2022-10-18T08:32:57.758Z,31.10
2022-10-18T08:36:02.936Z,29.27
2022-10-18T08:39:05.416Z,26.80
2022-10-18T08:42:45.845Z,28.35
2022-10-18T08:45:51.015Z,24.10
2022-10-18T08:48:56.909Z,28.17
2022-10-18T08:51:59.155Z,16.40
2022-10-18T08:55:03.734Z,19.42
2022-10-18T08:58:24.774Z,23.38
2022-10-18T09:01:46.021Z,20.83
2022-10-18T09:05:30.232Z,14.40
2022-10-18T09:08:55.502Z,18.87
2022-10-18T09:12:35.194Z,12.82
2022-10-18T09:15:46.642Z,15.30
2022-10-18T09:18:57.263Z,25.27
2022-10-18T09:22:11.967Z,19.27
2022-10-18T09:25:17.071Z,14.40
2022-10-18T09:28:29.482Z,14.65
2022-10-18T09:31:51.616Z,15.13
2022-10-18T09:35:20.256Z,9.90
2022-10-18T09:38:30.820Z,13.05
2022-10-18T09:41:45.868Z,23.95
2022-10-18T09:44:53.673Z,16.58
2022-10-18T09:48:06.238Z,14.02
2022-10-18T09:51:17.720Z,10.80
2022-10-18T09:54:31.260Z,31.58
2022-10-18T09:57:48.999Z,18.65
2022-10-18T10:00:55.654Z,11.63
2022-10-18T10:03:59.199Z,12.00
2022-10-18T10:07:02.661Z,14.18
2022-10-18T10:10:22.219Z,12.82
2022-10-18T10:13:26.254Z,15.00
2022-10-18T10:16:32.770Z,14.00
2022-10-18T10:19:56.973Z,11.23
2022-10-18T10:23:21.895Z,11.18
2022-10-18T10:26:25.695Z,10.10
2022-10-18T10:29:46.818Z,18.95
2022-10-18T10:32:52.788Z,9.55
2022-10-18T10:36:05.890Z,10.25
2022-10-18T10:39:18.749Z,12.60
2022-10-18T10:42:21.793Z,17.40
2022-10-18T10:45:27.302Z,13.55
2022-10-18T10:48:41.224Z,23.48
2022-10-18T10:51:53.678Z,10.93
2022-10-18T10:55:42.726Z,10.73
2022-10-18T10:58:45.861Z,34.10
2022-10-18T11:01:51.648Z,18.75
2022-10-18T11:04:59.437Z,13.20
2022-10-18T11:08:06.259Z,10.52
2022-10-18T11:11:22.901Z,12.18
2022-10-18T11:14:30.747Z,12.75
2022-10-18T11:18:17.506Z,21.47
2022-10-18T11:21:42.673Z,11.40
2022-10-18T11:24:46.160Z,11.93
2022-10-18T11:28:01.814Z,13.00
2022-10-18T11:31:31.304Z,18.62
2022-10-18T11:35:03.877Z,16.40
2022-10-18T11:38:39.299Z,13.18
2022-10-18T11:42:25.458Z,9.57
2022-10-18T11:46:01.163Z,15.23
2022-10-18T11:50:10.383Z,6.05
2022-10-18T11:53:52.161Z,11.05
2022-10-18T11:57:08.463Z,7.10
2022-10-18T12:00:14.389Z,7.82
2022-10-18T12:03:36.039Z,10.63
2022-10-18T12:06:43.048Z,14.68
2022-10-18T12:13:02.179Z,10.85
2022-10-18T12:16:08.429Z,9.15
2022-10-18T12:19:25.452Z,24.67
2022-10-18T12:25:45.303Z,12.07
2022-10-18T12:29:04.138Z,14.77
2022-10-18T12:32:13.156Z,10.07
2022-10-18T12:35:19.569Z,10.15
2022-10-18T12:38:31.998Z,5.57
2022-10-18T12:41:36.645Z,11.45
2022-10-18T12:44:40.705Z,19.75
2022-10-18T12:47:43.567Z,7.35
2022-10-18T12:51:17.867Z,11.15
2022-10-18T12:55:00.642Z,8.85
2022-10-18T12:58:21.013Z,12.43
2022-10-18T13:01:25.407Z,8.32
2022-10-18T13:04:27.544Z,8.25
2022-10-18T13:07:40.836Z,7.50
2022-10-18T13:10:44.651Z,6.32
2022-10-18T13:13:55.892Z,6.78
2022-10-18T13:17:43.664Z,14.50
2022-10-18T13:21:11.257Z,7.35
2022-10-18T13:24:48.408Z,9.07
2022-10-18T13:28:02.434Z,9.48
2022-10-18T13:31:10.582Z,11.85
2022-10-18T13:34:30.809Z,14.70
2022-10-18T13:37:33.700Z,16.27
2022-10-18T13:40:36.487Z,13.85
2022-10-18T13:43:54.079Z,9.45
2022-10-18T13:46:56.477Z,9.13
2022-10-18T13:50:16.550Z,7.05
2022-10-18T13:53:41.186Z,12.63
2022-10-18T13:57:09.162Z,7.65
2022-10-18T14:04:39.726Z,7.60
2022-10-18T14:07:44.737Z,9.18
2022-10-18T14:11:03.552Z,13.62
2022-10-18T14:14:29.947Z,5.12
2022-10-18T14:17:44.506Z,10.23
2022-10-18T14:21:12.358Z,18.52
2022-10-18T14:24:23.662Z,10.63
2022-10-18T14:27:32.553Z,9.77
2022-10-18T14:30:54.151Z,7.95
2022-10-18T14:33:59.010Z,16.57
2022-10-18T14:37:04.042Z,9.63
2022-10-18T14:40:26.017Z,16.08
2022-10-18T14:43:29.515Z,7.03
2022-10-18T14:46:34.617Z,24.77
2022-10-18T14:49:49.969Z,13.20
2022-10-18T14:52:58.186Z,13.20
2022-10-18T14:56:08.179Z,11.77
2022-10-18T14:59:34.416Z,7.00
2022-10-18T15:02:47.269Z,12.60
2022-10-18T15:06:05.254Z,10.18
2022-10-18T15:09:16.203Z,11.18
2022-10-18T15:12:36.856Z,12.55
2022-10-18T15:15:57.024Z,23.50
2022-10-18T15:19:40.102Z,7.00
2022-10-18T15:22:47.496Z,10.63
2022-10-18T15:25:54.852Z,13.95
2022-10-18T15:29:06.127Z,9.55
2022-10-18T15:32:26.654Z,15.20
2022-10-18T15:35:39.446Z,9.00
2022-10-18T15:38:47.571Z,21.00
2022-10-18T15:41:59.664Z,11.12
2022-10-18T15:45:03.729Z,14.85
2022-10-18T15:48:07.828Z,15.05
2022-10-18T15:51:34.072Z,14.13
2022-10-18T15:55:04.513Z,12.70
2022-10-18T15:58:41.302Z,18.12
2022-10-18T16:01:45.464Z,10.45
2022-10-18T16:04:55.640Z,11.88
2022-10-18T16:08:01.093Z,11.90
2022-10-18T16:11:07.629Z,20.30
2022-10-18T16:14:11.361Z,15.13
2022-10-18T16:17:17.389Z,19.70
2022-10-18T16:20:33.638Z,17.35
2022-10-18T16:23:37.822Z,18.37
2022-10-18T16:26:44.071Z,15.35
2022-10-18T16:29:52.140Z,18.90
2022-10-18T16:32:56.168Z,18.48
2022-10-18T16:36:02.135Z,18.70
2022-10-18T16:39:09.290Z,22.40
2022-10-18T16:42:19.503Z,27.15
2022-10-18T16:45:26.184Z,18.45
2022-10-18T16:48:35.457Z,13.57
2022-10-18T16:51:39.844Z,18.52
2022-10-18T16:54:44.563Z,25.55
2022-10-18T17:01:14.338Z,20.70
2022-10-18T17:04:18.400Z,21.37
2022-10-18T17:07:28.039Z,23.95
2022-10-18T17:10:35.339Z,19.17
2022-10-18T17:13:44.057Z,26.52
2022-10-18T17:16:54.883Z,23.55
2022-10-18T17:20:04.081Z,24.02
2022-10-18T17:23:09.914Z,27.17
2022-10-18T17:26:30.094Z,20.80
2022-10-18T17:29:36.054Z,29.00
2022-10-18T17:32:45.060Z,23.52
2022-10-18T17:35:50.523Z,19.90
2022-10-18T17:38:56.442Z,23.35
2022-10-18T17:42:00.433Z,20.95
2022-10-18T17:45:08.677Z,25.30
2022-10-18T17:48:17.244Z,25.25
2022-10-18T17:51:27.041Z,32.85
2022-10-18T17:54:30.128Z,26.23
2022-10-18T17:57:41.072Z,29.08
2022-10-18T18:00:48.531Z,31.25
2022-10-18T18:04:02.334Z,33.72
2022-10-18T18:07:06.006Z,25.50
2022-10-18T18:10:10.288Z,25.05
2022-10-18T18:13:19.639Z,34.28
2022-10-18T18:16:29.894Z,36.58
2022-10-18T18:19:35.381Z,30.50
2022-10-18T18:22:42.583Z,26.52
2022-10-18T18:25:57.955Z,41.05
2022-10-18T18:32:14.940Z,31.52
2022-10-18T18:38:45.989Z,23.75
2022-10-18T18:41:52.351Z,27.00
2022-10-18T18:44:57.069Z,24.70
2022-10-18T18:48:12.736Z,25.23
2022-10-18T18:51:25.085Z,25.35
2022-10-18T18:54:31.450Z,31.20
2022-10-18T18:57:36.541Z,24.45
2022-10-18T19:00:45.586Z,33.22
2022-10-18T19:03:51.972Z,27.23
2022-10-18T19:06:55.570Z,29.60
2022-10-18T19:10:00.319Z,26.27
2022-10-18T19:13:07.773Z,26.77
2022-10-18T19:16:35.525Z,24.33
2022-10-18T19:19:43.603Z,37.30
2022-10-18T19:22:54.964Z,22.37
2022-10-18T19:26:44.280Z,41.55
2022-10-18T19:29:49.823Z,21.37
2022-10-18T19:36:10.326Z,26.48
2022-10-18T19:39:30.463Z,21.83
2022-10-18T19:42:42.108Z,25.05
2022-10-18T19:45:46.796Z,27.00
2022-10-18T19:48:55.664Z,24.33
2022-10-18T19:52:01.617Z,22.85
2022-10-18T19:55:06.242Z,28.95
2022-10-18T19:58:13.468Z,25.60
2022-10-18T20:01:19.895Z,31.33
2022-10-18T20:04:26.184Z,28.67
2022-10-18T20:07:29.776Z,25.62
2022-10-18T20:10:34.847Z,24.42
2022-10-18T20:13:51.660Z,34.28
2022-10-18T20:17:07.625Z,30.33
2022-10-18T20:20:22.292Z,37.88
2022-10-18T20:23:47.816Z,27.37
2022-10-18T20:26:54.699Z,34.50
2022-10-18T20:30:12.814Z,26.75
2022-10-18T20:33:29.644Z,25.88
2022-10-18T20:40:05.859Z,26.45
2022-10-18T20:43:29.812Z,26.75
2022-10-18T20:46:47.141Z,29.45
2022-10-18T20:50:07.013Z,25.73
2022-10-18T20:53:17.845Z,23.70
2022-10-18T20:56:33.385Z,22.05
2022-10-18T20:59:41.678Z,19.92
2022-10-18T21:02:45.179Z,24.12
2022-10-18T21:05:50.066Z,26.60
2022-10-18T21:09:08.258Z,21.98
2022-10-18T21:12:27.600Z,21.83
2022-10-18T21:15:34.191Z,26.87
2022-10-18T21:18:42.297Z,20.85
2022-10-18T21:21:56.263Z,23.30
2022-10-18T21:25:11.273Z,19.42
2022-10-18T21:28:28.183Z,22.23
2022-10-18T21:31:43.846Z,19.40
2022-10-18T21:34:50.873Z,20.17
2022-10-18T21:38:07.242Z,17.25
2022-10-18T21:41:17.852Z,30.60
2022-10-18T21:44:38.154Z,19.55
2022-10-18T21:47:42.346Z,20.35
2022-10-18T21:50:46.896Z,21.77
2022-10-18T21:53:53.366Z,19.58
2022-10-18T21:57:00.039Z,24.65
2022-10-18T22:00:06.233Z,20.70
2022-10-18T22:03:15.219Z,23.75
2022-10-18T22:06:25.034Z,29.05
2022-10-18T22:09:29.618Z,23.27
2022-10-18T22:12:36.042Z,19.45
2022-10-18T22:15:42.109Z,19.10
2022-10-18T22:18:48.447Z,21.90
2022-10-18T22:21:53.680Z,20.98
2022-10-18T22:25:07.288Z,23.87
2022-10-18T22:28:13.413Z,39.22
2022-10-18T22:31:23.777Z,15.25
2022-10-18T22:34:33.012Z,15.57
2022-10-18T22:37:44.078Z,16.23
2022-10-18T22:40:49.391Z,14.32
2022-10-18T22:43:59.748Z,18.02
2022-10-18T22:47:12.476Z,31.40
2022-10-18T22:50:25.942Z,18.05
2022-10-18T22:53:31.928Z,16.37
2022-10-18T22:56:47.046Z,16.60
2022-10-18T23:00:03.606Z,13.95
2022-10-18T23:03:39.536Z,17.20
2022-10-18T23:06:47.686Z,16.80
2022-10-18T23:09:57.715Z,16.30
2022-10-18T23:13:06.685Z,15.00
2022-10-18T23:16:10.731Z,15.40
2022-10-18T23:19:18.729Z,14.68
2022-10-18T23:22:28.447Z,18.98
2022-10-18T23:25:51.789Z,15.18
2022-10-18T23:28:59.251Z,21.95
2022-10-18T23:32:02.523Z,18.58
2022-10-18T23:35:11.249Z,19.60
2022-10-18T23:38:14.762Z,22.42
2022-10-18T23:41:20.617Z,16.08
2022-10-18T23:44:25.692Z,18.23
2022-10-18T23:47:37.013Z,13.38
2022-10-18T23:53:51.332Z,19.30
2022-10-18T23:56:59.651Z,13.85
